sensor_id;sensor_type;location;lat;lon;timestamp;temperature;humidity
67750;DHT22;54550;48.838;8.828;2022-12-07T00:01:34;1.90;99.90
67750;DHT22;54550;48.838;8.828;2022-12-07T00:04:02;1.80;99.90
67750;DHT22;54550;48.838;8.828;2022-12-07T00:06:33;1.90;99.90
67750;DHT22;54550;48.838;8.828;2022-12-07T00:08:59;1.70;99.90
67750;DHT22;54550;48.838;8.828;2022-12-07T00:11:25;1.70;99.90
67750;DHT22;54550;48.838;8.828;2022-12-07T00:13:53;1.60;99.90
67750;DHT22;54550;48.838;8.828;2022-12-07T00:16:20;1.60;99.90
67750;DHT22;54550;48.838;8.828;2022-12-07T00:18:46;1.60;99.90
67750;DHT22;54550;48.838;8.828;2022-12-07T00:21:15;1.50;99.90
67750;DHT22;54550;48.838;8.828;2022-12-07T00:23:41;1.60;99.90
67750;DHT22;54550;48.838;8.828;2022-12-07T00:26:16;1.60;99.90
67750;DHT22;54550;48.838;8.828;2022-12-07T00:28:48;1.60;99.90
67750;DHT22;54550;48.838;8.828;2022-12-07T00:31:16;1.60;99.90
67750;DHT22;54550;48.838;8.828;2022-12-07T00:33:42;1.60;99.90
67750;DHT22;54550;48.838;8.828;2022-12-07T00:36:10;1.60;99.90
67750;DHT22;54550;48.838;8.828;2022-12-07T00:38:37;1.60;99.90
67750;DHT22;54550;48.838;8.828;2022-12-07T00:41:11;1.50;99.90
67750;DHT22;54550;48.838;8.828;2022-12-07T00:43:37;1.50;99.90
67750;DHT22;54550;48.838;8.828;2022-12-07T00:46:02;1.50;99.90
67750;DHT22;54550;48.838;8.828;2022-12-07T00:48:28;1.50;99.90
67750;DHT22;54550;48.838;8.828;2022-12-07T00:50:54;1.50;99.90
67750;DHT22;54550;48.838;8.828;2022-12-07T00:53:20;1.50;99.90
67750;DHT22;54550;48.838;8.828;2022-12-07T00:55:46;1.50;99.90
67750;DHT22;54550;48.838;8.828;2022-12-07T00:58:12;1.50;99.90
67750;DHT22;54550;48.838;8.828;2022-12-07T01:00:39;1.50;99.90
67750;DHT22;54550;48.838;8.828;2022-12-07T01:03:06;1.50;99.90
67750;DHT22;54550;48.838;8.828;2022-12-07T01:05:32;1.50;99.90
67750;DHT22;54550;48.838;8.828;2022-12-07T01:07:58;1.50;99.90
67750;DHT22;54550;48.838;8.828;2022-12-07T01:10:24;1.50;99.90
67750;DHT22;54550;48.838;8.828;2022-12-07T01:12:49;1.50;99.90
67750;DHT22;54550;48.838;8.828;2022-12-07T01:15:15;1.70;99.90
67750;DHT22;54550;48.838;8.828;2022-12-07T01:17:41;1.60;99.90
67750;DHT22;54550;48.838;8.828;2022-12-07T01:20:07;1.50;99.90
67750;DHT22;54550;48.838;8.828;2022-12-07T01:22:42;1.50;99.90
67750;DHT22;54550;48.838;8.828;2022-12-07T01:25:10;1.50;99.90
67750;DHT22;54550;48.838;8.828;2022-12-07T01:27:37;1.40;99.90
67750;DHT22;54550;48.838;8.828;2022-12-07T01:30:05;1.50;99.90
67750;DHT22;54550;48.838;8.828;2022-12-07T01:32:31;1.50;99.90
67750;DHT22;54550;48.838;8.828;2022-12-07T01:34:57;1.50;99.90
67750;DHT22;54550;48.838;8.828;2022-12-07T01:37:22;1.50;99.90
67750;DHT22;54550;48.838;8.828;2022-12-07T01:39:49;1.50;99.90
67750;DHT22;54550;48.838;8.828;2022-12-07T01:42:15;1.50;99.90
67750;DHT22;54550;48.838;8.828;2022-12-07T01:47:50;1.60;99.90
67750;DHT22;54550;48.838;8.828;2022-12-07T01:50:18;1.50;99.90
67750;DHT22;54550;48.838;8.828;2022-12-07T01:52:45;1.50;99.90
67750;DHT22;54550;48.838;8.828;2022-12-07T01:55:15;1.50;99.90
67750;DHT22;54550;48.838;8.828;2022-12-07T01:57:45;1.50;99.90
67750;DHT22;54550;48.838;8.828;2022-12-07T02:00:13;1.40;99.90
67750;DHT22;54550;48.838;8.828;2022-12-07T02:02:51;1.50;99.90
67750;DHT22;54550;48.838;8.828;2022-12-07T02:05:19;1.40;99.90
67750;DHT22;54550;48.838;8.828;2022-12-07T02:07:47;1.40;99.90
67750;DHT22;54550;48.838;8.828;2022-12-07T02:10:18;1.40;99.90
67750;DHT22;54550;48.838;8.828;2022-12-07T02:12:49;1.40;99.90
67750;DHT22;54550;48.838;8.828;2022-12-07T02:15:16;1.50;99.90
67750;DHT22;54550;48.838;8.828;2022-12-07T02:18:03;1.50;99.90
67750;DHT22;54550;48.838;8.828;2022-12-07T02:20:51;1.50;99.90
67750;DHT22;54550;48.838;8.828;2022-12-07T02:23:41;1.50;99.90
67750;DHT22;54550;48.838;8.828;2022-12-07T02:29:22;1.40;99.90
67750;DHT22;54550;48.838;8.828;2022-12-07T02:31:59;1.40;99.90
67750;DHT22;54550;48.838;8.828;2022-12-07T02:34:37;1.30;99.90
67750;DHT22;54550;48.838;8.828;2022-12-07T02:37:18;1.30;99.90
67750;DHT22;54550;48.838;8.828;2022-12-07T02:39:54;1.30;99.90
67750;DHT22;54550;48.838;8.828;2022-12-07T02:42:31;1.30;99.90
67750;DHT22;54550;48.838;8.828;2022-12-07T02:44:59;1.20;99.90
67750;DHT22;54550;48.838;8.828;2022-12-07T02:47:26;1.20;99.90
67750;DHT22;54550;48.838;8.828;2022-12-07T02:49:54;1.20;99.90
67750;DHT22;54550;48.838;8.828;2022-12-07T02:52:19;1.10;99.90
67750;DHT22;54550;48.838;8.828;2022-12-07T02:54:45;1.20;99.90
67750;DHT22;54550;48.838;8.828;2022-12-07T03:00:10;1.20;99.90
67750;DHT22;54550;48.838;8.828;2022-12-07T03:06:03;1.20;99.90
67750;DHT22;54550;48.838;8.828;2022-12-07T03:09:09;1.10;99.90
67750;DHT22;54550;48.838;8.828;2022-12-07T03:11:46;1.10;99.90
67750;DHT22;54550;48.838;8.828;2022-12-07T03:14:15;1.10;99.90
67750;DHT22;54550;48.838;8.828;2022-12-07T03:17:16;1.10;99.90
67750;DHT22;54550;48.838;8.828;2022-12-07T03:19:45;1.10;99.90
67750;DHT22;54550;48.838;8.828;2022-12-07T03:22:13;1.10;99.90
67750;DHT22;54550;48.838;8.828;2022-12-07T03:24:43;1.10;99.90
67750;DHT22;54550;48.838;8.828;2022-12-07T03:27:19;1.10;99.90
67750;DHT22;54550;48.838;8.828;2022-12-07T03:29:50;1.10;99.90
67750;DHT22;54550;48.838;8.828;2022-12-07T03:32:23;1.00;99.90
67750;DHT22;54550;48.838;8.828;2022-12-07T03:38:14;1.00;99.90
67750;DHT22;54550;48.838;8.828;2022-12-07T03:41:22;1.00;99.90
67750;DHT22;54550;48.838;8.828;2022-12-07T03:43:44;1.00;99.90
67750;DHT22;54550;48.838;8.828;2022-12-07T03:46:21;1.00;99.90
67750;DHT22;54550;48.838;8.828;2022-12-07T03:49:17;1.00;99.90
67750;DHT22;54550;48.838;8.828;2022-12-07T03:51:52;1.00;99.90
67750;DHT22;54550;48.838;8.828;2022-12-07T03:54:27;1.10;99.90
67750;DHT22;54550;48.838;8.828;2022-12-07T03:56:54;1.00;99.90
67750;DHT22;54550;48.838;8.828;2022-12-07T03:59:21;0.90;99.90
67750;DHT22;54550;48.838;8.828;2022-12-07T04:01:56;0.80;99.90
67750;DHT22;54550;48.838;8.828;2022-12-07T04:04:23;0.80;99.90
67750;DHT22;54550;48.838;8.828;2022-12-07T04:06:50;0.80;99.90
67750;DHT22;54550;48.838;8.828;2022-12-07T04:09:16;0.70;99.90
67750;DHT22;54550;48.838;8.828;2022-12-07T04:11:42;0.70;99.90
67750;DHT22;54550;48.838;8.828;2022-12-07T04:14:07;0.60;99.90
67750;DHT22;54550;48.838;8.828;2022-12-07T04:16:53;0.70;99.90
67750;DHT22;54550;48.838;8.828;2022-12-07T04:19:21;0.80;99.90
67750;DHT22;54550;48.838;8.828;2022-12-07T04:21:47;0.80;99.90
67750;DHT22;54550;48.838;8.828;2022-12-07T04:24:14;0.80;99.90
67750;DHT22;54550;48.838;8.828;2022-12-07T04:26:41;0.70;99.90
67750;DHT22;54550;48.838;8.828;2022-12-07T04:29:07;0.60;99.90
67750;DHT22;54550;48.838;8.828;2022-12-07T04:31:33;0.40;99.90
67750;DHT22;54550;48.838;8.828;2022-12-07T04:33:58;0.40;99.90
67750;DHT22;54550;48.838;8.828;2022-12-07T04:36:24;0.40;99.90
67750;DHT22;54550;48.838;8.828;2022-12-07T04:38:50;0.40;99.90
67750;DHT22;54550;48.838;8.828;2022-12-07T04:41:18;0.30;99.90
67750;DHT22;54550;48.838;8.828;2022-12-07T04:43:43;0.30;99.90
67750;DHT22;54550;48.838;8.828;2022-12-07T04:46:09;0.30;99.90
67750;DHT22;54550;48.838;8.828;2022-12-07T04:48:34;0.30;99.90
67750;DHT22;54550;48.838;8.828;2022-12-07T04:51:00;0.00;99.90
67750;DHT22;54550;48.838;8.828;2022-12-07T04:53:25;-0.20;99.90
67750;DHT22;54550;48.838;8.828;2022-12-07T04:55:51;-0.50;99.90
67750;DHT22;54550;48.838;8.828;2022-12-07T04:58:16;-0.70;99.90
67750;DHT22;54550;48.838;8.828;2022-12-07T05:00:42;-0.80;99.90
67750;DHT22;54550;48.838;8.828;2022-12-07T05:03:08;-1.00;99.90
67750;DHT22;54550;48.838;8.828;2022-12-07T05:05:33;-1.10;99.90
67750;DHT22;54550;48.838;8.828;2022-12-07T05:07:59;-1.20;99.90
67750;DHT22;54550;48.838;8.828;2022-12-07T05:10:24;-1.10;99.90
67750;DHT22;54550;48.838;8.828;2022-12-07T05:12:50;-1.10;99.90
67750;DHT22;54550;48.838;8.828;2022-12-07T05:15:15;-1.00;99.90
67750;DHT22;54550;48.838;8.828;2022-12-07T05:17:41;-0.90;99.90
67750;DHT22;54550;48.838;8.828;2022-12-07T05:20:08;-0.90;99.90
67750;DHT22;54550;48.838;8.828;2022-12-07T05:22:33;-0.80;99.90
67750;DHT22;54550;48.838;8.828;2022-12-07T05:24:59;-0.70;99.90
67750;DHT22;54550;48.838;8.828;2022-12-07T05:27:25;-0.70;99.90
67750;DHT22;54550;48.838;8.828;2022-12-07T05:29:51;-0.50;99.90
67750;DHT22;54550;48.838;8.828;2022-12-07T05:32:17;-0.50;99.90
67750;DHT22;54550;48.838;8.828;2022-12-07T05:34:42;-0.50;99.90
67750;DHT22;54550;48.838;8.828;2022-12-07T05:37:08;-0.40;99.90
67750;DHT22;54550;48.838;8.828;2022-12-07T05:39:33;-0.40;99.90
67750;DHT22;54550;48.838;8.828;2022-12-07T05:41:59;-0.40;99.90
67750;DHT22;54550;48.838;8.828;2022-12-07T05:44:40;-0.30;99.90
67750;DHT22;54550;48.838;8.828;2022-12-07T05:47:06;-0.20;99.90
67750;DHT22;54550;48.838;8.828;2022-12-07T05:49:32;-0.10;99.90
67750;DHT22;54550;48.838;8.828;2022-12-07T05:51:58;0.00;99.90
67750;DHT22;54550;48.838;8.828;2022-12-07T05:54:23;0.00;99.90
67750;DHT22;54550;48.838;8.828;2022-12-07T05:56:49;0.10;99.90
67750;DHT22;54550;48.838;8.828;2022-12-07T05:59:15;0.20;99.90
67750;DHT22;54550;48.838;8.828;2022-12-07T06:01:56;0.30;99.90
67750;DHT22;54550;48.838;8.828;2022-12-07T06:04:23;0.20;99.90
67750;DHT22;54550;48.838;8.828;2022-12-07T06:06:49;0.20;99.90
67750;DHT22;54550;48.838;8.828;2022-12-07T06:09:15;0.10;99.90
67750;DHT22;54550;48.838;8.828;2022-12-07T06:11:41;0.10;99.90
67750;DHT22;54550;48.838;8.828;2022-12-07T06:14:25;0.20;99.90
67750;DHT22;54550;48.838;8.828;2022-12-07T06:16:51;0.30;99.90
67750;DHT22;54550;48.838;8.828;2022-12-07T06:19:17;0.30;99.90
67750;DHT22;54550;48.838;8.828;2022-12-07T06:21:43;0.40;99.90
67750;DHT22;54550;48.838;8.828;2022-12-07T06:24:13;0.40;99.90
67750;DHT22;54550;48.838;8.828;2022-12-07T06:26:40;0.50;99.90
67750;DHT22;54550;48.838;8.828;2022-12-07T06:29:05;0.50;99.90
67750;DHT22;54550;48.838;8.828;2022-12-07T06:31:31;0.60;99.90
67750;DHT22;54550;48.838;8.828;2022-12-07T06:34:02;0.50;99.90
67750;DHT22;54550;48.838;8.828;2022-12-07T06:36:28;0.70;99.90
67750;DHT22;54550;48.838;8.828;2022-12-07T06:38:54;0.50;99.90
67750;DHT22;54550;48.838;8.828;2022-12-07T06:41:20;0.60;99.90
67750;DHT22;54550;48.838;8.828;2022-12-07T06:43:46;0.60;99.90
67750;DHT22;54550;48.838;8.828;2022-12-07T06:46:13;0.70;99.90
67750;DHT22;54550;48.838;8.828;2022-12-07T06:48:39;0.70;99.90
67750;DHT22;54550;48.838;8.828;2022-12-07T06:51:05;0.70;99.90
67750;DHT22;54550;48.838;8.828;2022-12-07T06:53:31;1.10;99.90
67750;DHT22;54550;48.838;8.828;2022-12-07T06:55:56;0.70;99.90
67750;DHT22;54550;48.838;8.828;2022-12-07T06:58:22;0.70;99.90
67750;DHT22;54550;48.838;8.828;2022-12-07T07:00:48;0.70;99.90
67750;DHT22;54550;48.838;8.828;2022-12-07T07:03:15;0.70;99.90
67750;DHT22;54550;48.838;8.828;2022-12-07T07:05:42;0.70;99.90
67750;DHT22;54550;48.838;8.828;2022-12-07T07:08:08;0.70;99.90
67750;DHT22;54550;48.838;8.828;2022-12-07T07:10:33;0.70;99.90
67750;DHT22;54550;48.838;8.828;2022-12-07T07:12:59;0.60;99.90
67750;DHT22;54550;48.838;8.828;2022-12-07T07:15:24;0.60;99.90
67750;DHT22;54550;48.838;8.828;2022-12-07T07:17:50;0.70;99.90
67750;DHT22;54550;48.838;8.828;2022-12-07T07:20:16;0.70;99.90
67750;DHT22;54550;48.838;8.828;2022-12-07T07:22:41;0.70;99.90
67750;DHT22;54550;48.838;8.828;2022-12-07T07:25:07;0.70;99.90
67750;DHT22;54550;48.838;8.828;2022-12-07T07:27:33;0.80;99.90
67750;DHT22;54550;48.838;8.828;2022-12-07T07:29:58;0.80;99.90
67750;DHT22;54550;48.838;8.828;2022-12-07T07:32:24;0.80;99.90
67750;DHT22;54550;48.838;8.828;2022-12-07T07:34:49;0.80;99.90
67750;DHT22;54550;48.838;8.828;2022-12-07T07:37:15;0.80;99.90
67750;DHT22;54550;48.838;8.828;2022-12-07T07:39:40;0.80;99.90
67750;DHT22;54550;48.838;8.828;2022-12-07T07:42:06;0.90;99.90
67750;DHT22;54550;48.838;8.828;2022-12-07T07:44:33;1.50;99.90
67750;DHT22;54550;48.838;8.828;2022-12-07T07:46:59;1.00;99.90
67750;DHT22;54550;48.838;8.828;2022-12-07T07:49:25;1.10;99.90
67750;DHT22;54550;48.838;8.828;2022-12-07T07:51:50;1.10;99.90
67750;DHT22;54550;48.838;8.828;2022-12-07T07:54:16;1.10;99.90
67750;DHT22;54550;48.838;8.828;2022-12-07T07:56:42;1.30;99.90
67750;DHT22;54550;48.838;8.828;2022-12-07T07:59:07;1.20;99.90
67750;DHT22;54550;48.838;8.828;2022-12-07T08:01:33;1.20;99.90
67750;DHT22;54550;48.838;8.828;2022-12-07T08:03:59;1.30;99.90
67750;DHT22;54550;48.838;8.828;2022-12-07T08:06:24;1.40;99.90
67750;DHT22;54550;48.838;8.828;2022-12-07T08:08:50;1.40;99.90
67750;DHT22;54550;48.838;8.828;2022-12-07T08:11:15;1.40;99.90
67750;DHT22;54550;48.838;8.828;2022-12-07T08:13:41;1.50;99.90
67750;DHT22;54550;48.838;8.828;2022-12-07T08:16:09;1.60;99.90
67750;DHT22;54550;48.838;8.828;2022-12-07T08:18:39;1.60;99.90
67750;DHT22;54550;48.838;8.828;2022-12-07T08:21:06;1.60;99.90
67750;DHT22;54550;48.838;8.828;2022-12-07T08:23:32;1.70;99.90
67750;DHT22;54550;48.838;8.828;2022-12-07T08:26:04;1.70;99.90
67750;DHT22;54550;48.838;8.828;2022-12-07T08:28:30;1.70;99.90
67750;DHT22;54550;48.838;8.828;2022-12-07T08:31:11;1.70;99.90
67750;DHT22;54550;48.838;8.828;2022-12-07T08:33:37;1.80;99.90
67750;DHT22;54550;48.838;8.828;2022-12-07T08:36:05;1.90;99.90
67750;DHT22;54550;48.838;8.828;2022-12-07T08:38:31;2.00;99.90
67750;DHT22;54550;48.838;8.828;2022-12-07T08:40:58;2.00;99.90
67750;DHT22;54550;48.838;8.828;2022-12-07T08:43:24;2.10;99.90
67750;DHT22;54550;48.838;8.828;2022-12-07T08:46:21;2.10;99.90
67750;DHT22;54550;48.838;8.828;2022-12-07T08:48:53;2.20;99.90
67750;DHT22;54550;48.838;8.828;2022-12-07T08:51:21;2.20;99.90
67750;DHT22;54550;48.838;8.828;2022-12-07T08:53:50;2.30;99.90
67750;DHT22;54550;48.838;8.828;2022-12-07T08:56:16;2.30;99.90
67750;DHT22;54550;48.838;8.828;2022-12-07T08:58:42;2.40;99.90
67750;DHT22;54550;48.838;8.828;2022-12-07T09:01:08;2.50;99.90
67750;DHT22;54550;48.838;8.828;2022-12-07T09:03:34;2.60;99.90
67750;DHT22;54550;48.838;8.828;2022-12-07T09:06:00;2.70;99.90
67750;DHT22;54550;48.838;8.828;2022-12-07T09:08:47;2.80;99.90
67750;DHT22;54550;48.838;8.828;2022-12-07T09:11:15;2.90;99.90
67750;DHT22;54550;48.838;8.828;2022-12-07T09:13:41;2.90;99.90
67750;DHT22;54550;48.838;8.828;2022-12-07T09:16:06;2.90;99.90
67750;DHT22;54550;48.838;8.828;2022-12-07T09:18:32;3.00;99.90
67750;DHT22;54550;48.838;8.828;2022-12-07T09:20:57;3.10;99.90
67750;DHT22;54550;48.838;8.828;2022-12-07T09:23:23;3.10;99.90
67750;DHT22;54550;48.838;8.828;2022-12-07T09:25:49;3.30;99.90
67750;DHT22;54550;48.838;8.828;2022-12-07T09:28:14;3.40;99.90
67750;DHT22;54550;48.838;8.828;2022-12-07T09:30:46;3.60;99.90
67750;DHT22;54550;48.838;8.828;2022-12-07T09:33:12;3.60;99.90
67750;DHT22;54550;48.838;8.828;2022-12-07T09:35:38;3.40;99.90
67750;DHT22;54550;48.838;8.828;2022-12-07T09:38:03;3.40;99.90
67750;DHT22;54550;48.838;8.828;2022-12-07T09:40:29;3.50;99.90
67750;DHT22;54550;48.838;8.828;2022-12-07T09:42:55;3.40;99.90
67750;DHT22;54550;48.838;8.828;2022-12-07T09:45:33;3.30;99.90
67750;DHT22;54550;48.838;8.828;2022-12-07T09:47:59;3.50;99.90
67750;DHT22;54550;48.838;8.828;2022-12-07T09:50:27;3.40;99.90
67750;DHT22;54550;48.838;8.828;2022-12-07T09:52:54;3.50;99.90
67750;DHT22;54550;48.838;8.828;2022-12-07T09:55:27;3.50;99.90
67750;DHT22;54550;48.838;8.828;2022-12-07T09:57:54;3.60;99.90
67750;DHT22;54550;48.838;8.828;2022-12-07T10:00:21;3.50;99.90
67750;DHT22;54550;48.838;8.828;2022-12-07T10:02:59;3.50;99.90
67750;DHT22;54550;48.838;8.828;2022-12-07T10:05:31;3.40;99.90
67750;DHT22;54550;48.838;8.828;2022-12-07T10:07:57;3.50;99.90
67750;DHT22;54550;48.838;8.828;2022-12-07T10:10:30;3.60;99.90
67750;DHT22;54550;48.838;8.828;2022-12-07T10:13:03;3.60;99.90
67750;DHT22;54550;48.838;8.828;2022-12-07T10:21:16;4.60;99.90
67750;DHT22;54550;48.838;8.828;2022-12-07T10:29:22;4.40;99.90
67750;DHT22;54550;48.838;8.828;2022-12-07T10:32:03;4.10;99.90
67750;DHT22;54550;48.838;8.828;2022-12-07T10:34:34;3.90;99.90
67750;DHT22;54550;48.838;8.828;2022-12-07T10:42:20;3.50;99.90
67750;DHT22;54550;48.838;8.828;2022-12-07T10:44:48;3.30;99.90
67750;DHT22;54550;48.838;8.828;2022-12-07T10:47:32;3.50;99.90
67750;DHT22;54550;48.838;8.828;2022-12-07T10:50:22;3.40;99.90
67750;DHT22;54550;48.838;8.828;2022-12-07T11:01:18;3.50;99.90
67750;DHT22;54550;48.838;8.828;2022-12-07T11:04:31;3.40;99.90
67750;DHT22;54550;48.838;8.828;2022-12-07T11:07:20;3.60;99.90
67750;DHT22;54550;48.838;8.828;2022-12-07T11:10:08;3.60;99.90
67750;DHT22;54550;48.838;8.828;2022-12-07T11:13:02;3.60;99.90
67750;DHT22;54550;48.838;8.828;2022-12-07T11:37:40;3.20;99.90
67750;DHT22;54550;48.838;8.828;2022-12-07T11:42:51;3.00;99.90
67750;DHT22;54550;48.838;8.828;2022-12-07T11:45:27;3.00;99.90
67750;DHT22;54550;48.838;8.828;2022-12-07T11:48:00;3.00;99.90
67750;DHT22;54550;48.838;8.828;2022-12-07T12:03:45;3.10;99.90
67750;DHT22;54550;48.838;8.828;2022-12-07T12:06:11;3.10;99.90
67750;DHT22;54550;48.838;8.828;2022-12-07T12:11:25;3.10;99.90
67750;DHT22;54550;48.838;8.828;2022-12-07T12:17:14;3.20;99.90
67750;DHT22;54550;48.838;8.828;2022-12-07T12:22:19;3.30;99.90
67750;DHT22;54550;48.838;8.828;2022-12-07T12:24:49;3.40;99.90
67750;DHT22;54550;48.838;8.828;2022-12-07T12:27:29;3.50;99.90
67750;DHT22;54550;48.838;8.828;2022-12-07T12:29:59;3.60;99.90
67750;DHT22;54550;48.838;8.828;2022-12-07T12:34:58;3.70;99.90
67750;DHT22;54550;48.838;8.828;2022-12-07T12:42:58;3.60;99.90
67750;DHT22;54550;48.838;8.828;2022-12-07T12:45:29;3.60;99.90
67750;DHT22;54550;48.838;8.828;2022-12-07T12:48:26;3.60;99.90
67750;DHT22;54550;48.838;8.828;2022-12-07T12:54:04;3.30;99.90
67750;DHT22;54550;48.838;8.828;2022-12-07T13:04:55;3.20;99.90
67750;DHT22;54550;48.838;8.828;2022-12-07T13:15:49;2.90;99.90
67750;DHT22;54550;48.838;8.828;2022-12-07T13:18:39;2.80;99.90
67750;DHT22;54550;48.838;8.828;2022-12-07T13:34:32;2.90;99.90
67750;DHT22;54550;48.838;8.828;2022-12-07T13:37:00;3.00;99.90
67750;DHT22;54550;48.838;8.828;2022-12-07T13:39:27;3.00;99.90
67750;DHT22;54550;48.838;8.828;2022-12-07T13:41:58;3.10;99.90
67750;DHT22;54550;48.838;8.828;2022-12-07T13:44:25;3.20;99.90
67750;DHT22;54550;48.838;8.828;2022-12-07T13:49:31;3.20;99.90
67750;DHT22;54550;48.838;8.828;2022-12-07T13:52:39;3.10;99.90
67750;DHT22;54550;48.838;8.828;2022-12-07T13:55:14;3.00;99.90
67750;DHT22;54550;48.838;8.828;2022-12-07T13:57:40;3.10;99.90
67750;DHT22;54550;48.838;8.828;2022-12-07T14:05:28;3.10;99.90
67750;DHT22;54550;48.838;8.828;2022-12-07T14:08:02;3.00;99.90
67750;DHT22;54550;48.838;8.828;2022-12-07T14:10:32;2.90;99.90
67750;DHT22;54550;48.838;8.828;2022-12-07T14:12:59;3.00;99.90
67750;DHT22;54550;48.838;8.828;2022-12-07T14:15:34;2.80;99.90
67750;DHT22;54550;48.838;8.828;2022-12-07T14:18:02;2.80;99.90
67750;DHT22;54550;48.838;8.828;2022-12-07T14:20:38;2.80;99.90
67750;DHT22;54550;48.838;8.828;2022-12-07T14:23:04;2.80;99.90
67750;DHT22;54550;48.838;8.828;2022-12-07T14:25:48;2.90;99.90
67750;DHT22;54550;48.838;8.828;2022-12-07T14:28:34;2.80;99.90
67750;DHT22;54550;48.838;8.828;2022-12-07T14:31:01;2.50;99.90
67750;DHT22;54550;48.838;8.828;2022-12-07T14:33:28;2.40;99.90
67750;DHT22;54550;48.838;8.828;2022-12-07T14:35:53;2.30;99.90
67750;DHT22;54550;48.838;8.828;2022-12-07T14:38:23;2.20;99.90
67750;DHT22;54550;48.838;8.828;2022-12-07T14:40:50;2.20;99.90
67750;DHT22;54550;48.838;8.828;2022-12-07T14:43:18;2.10;99.90
67750;DHT22;54550;48.838;8.828;2022-12-07T14:45:44;2.10;99.90
67750;DHT22;54550;48.838;8.828;2022-12-07T14:48:14;1.90;99.90
67750;DHT22;54550;48.838;8.828;2022-12-07T14:50:43;1.90;99.90
67750;DHT22;54550;48.838;8.828;2022-12-07T14:53:13;1.90;99.90
67750;DHT22;54550;48.838;8.828;2022-12-07T14:55:39;1.90;99.90
67750;DHT22;54550;48.838;8.828;2022-12-07T14:58:05;1.90;99.90
67750;DHT22;54550;48.838;8.828;2022-12-07T15:00:30;1.90;99.90
67750;DHT22;54550;48.838;8.828;2022-12-07T15:02:56;1.90;99.90
67750;DHT22;54550;48.838;8.828;2022-12-07T15:05:22;1.90;99.90
67750;DHT22;54550;48.838;8.828;2022-12-07T15:07:49;1.90;99.90
67750;DHT22;54550;48.838;8.828;2022-12-07T15:10:18;1.90;99.90
67750;DHT22;54550;48.838;8.828;2022-12-07T15:12:44;1.90;99.90
67750;DHT22;54550;48.838;8.828;2022-12-07T15:15:10;1.90;99.90
67750;DHT22;54550;48.838;8.828;2022-12-07T15:17:36;1.90;99.90
67750;DHT22;54550;48.838;8.828;2022-12-07T15:20:02;1.90;99.90
67750;DHT22;54550;48.838;8.828;2022-12-07T15:22:28;1.90;99.90
67750;DHT22;54550;48.838;8.828;2022-12-07T15:24:56;1.80;99.90
67750;DHT22;54550;48.838;8.828;2022-12-07T15:27:22;1.80;99.90
67750;DHT22;54550;48.838;8.828;2022-12-07T15:29:48;1.80;99.90
67750;DHT22;54550;48.838;8.828;2022-12-07T15:32:13;1.80;99.90
67750;DHT22;54550;48.838;8.828;2022-12-07T15:34:39;1.70;99.90
67750;DHT22;54550;48.838;8.828;2022-12-07T15:37:04;1.80;99.90
67750;DHT22;54550;48.838;8.828;2022-12-07T15:39:30;1.70;99.90
67750;DHT22;54550;48.838;8.828;2022-12-07T15:41:56;1.80;99.90
67750;DHT22;54550;48.838;8.828;2022-12-07T15:44:21;1.80;99.90
67750;DHT22;54550;48.838;8.828;2022-12-07T15:47:06;1.70;99.90
67750;DHT22;54550;48.838;8.828;2022-12-07T15:49:31;1.70;99.90
67750;DHT22;54550;48.838;8.828;2022-12-07T15:51:57;1.70;99.90
67750;DHT22;54550;48.838;8.828;2022-12-07T15:54:25;1.70;99.90
67750;DHT22;54550;48.838;8.828;2022-12-07T15:56:51;1.70;99.90
67750;DHT22;54550;48.838;8.828;2022-12-07T15:59:17;1.60;99.90
67750;DHT22;54550;48.838;8.828;2022-12-07T16:01:43;1.50;99.90
67750;DHT22;54550;48.838;8.828;2022-12-07T16:04:08;1.60;99.90
67750;DHT22;54550;48.838;8.828;2022-12-07T16:06:34;1.60;99.90
67750;DHT22;54550;48.838;8.828;2022-12-07T16:09:00;1.60;99.90
67750;DHT22;54550;48.838;8.828;2022-12-07T16:11:26;1.60;99.90
67750;DHT22;54550;48.838;8.828;2022-12-07T16:13:51;1.60;99.90
67750;DHT22;54550;48.838;8.828;2022-12-07T16:16:19;1.50;99.90
67750;DHT22;54550;48.838;8.828;2022-12-07T16:18:46;2.00;99.90
67750;DHT22;54550;48.838;8.828;2022-12-07T16:21:13;1.60;99.90
67750;DHT22;54550;48.838;8.828;2022-12-07T16:23:39;1.50;99.90
67750;DHT22;54550;48.838;8.828;2022-12-07T16:26:07;1.50;99.90
67750;DHT22;54550;48.838;8.828;2022-12-07T16:28:33;1.50;99.90
67750;DHT22;54550;48.838;8.828;2022-12-07T16:31:06;1.60;99.90
67750;DHT22;54550;48.838;8.828;2022-12-07T16:33:36;1.50;99.90
67750;DHT22;54550;48.838;8.828;2022-12-07T16:36:03;1.50;99.90
67750;DHT22;54550;48.838;8.828;2022-12-07T16:38:29;1.50;99.90
67750;DHT22;54550;48.838;8.828;2022-12-07T16:40:54;1.40;99.90
67750;DHT22;54550;48.838;8.828;2022-12-07T16:43:20;1.40;99.90
67750;DHT22;54550;48.838;8.828;2022-12-07T16:45:46;1.70;99.90
67750;DHT22;54550;48.838;8.828;2022-12-07T16:48:13;1.40;99.90
67750;DHT22;54550;48.838;8.828;2022-12-07T16:50:40;1.40;99.90
67750;DHT22;54550;48.838;8.828;2022-12-07T16:53:07;1.40;99.90
67750;DHT22;54550;48.838;8.828;2022-12-07T16:55:39;1.40;99.90
67750;DHT22;54550;48.838;8.828;2022-12-07T16:58:06;1.50;99.90
67750;DHT22;54550;48.838;8.828;2022-12-07T17:00:31;1.40;99.90
67750;DHT22;54550;48.838;8.828;2022-12-07T17:02:57;1.40;99.90
67750;DHT22;54550;48.838;8.828;2022-12-07T17:05:23;1.40;99.90
67750;DHT22;54550;48.838;8.828;2022-12-07T17:07:50;1.30;99.90
67750;DHT22;54550;48.838;8.828;2022-12-07T17:10:15;1.30;99.90
67750;DHT22;54550;48.838;8.828;2022-12-07T17:12:41;1.40;99.90
67750;DHT22;54550;48.838;8.828;2022-12-07T17:15:07;1.30;99.90
67750;DHT22;54550;48.838;8.828;2022-12-07T17:17:58;1.40;99.90
67750;DHT22;54550;48.838;8.828;2022-12-07T17:20:25;1.40;99.90
67750;DHT22;54550;48.838;8.828;2022-12-07T17:22:51;1.30;99.90
67750;DHT22;54550;48.838;8.828;2022-12-07T17:25:18;1.30;99.90
67750;DHT22;54550;48.838;8.828;2022-12-07T17:27:45;1.40;99.90
67750;DHT22;54550;48.838;8.828;2022-12-07T17:30:12;1.30;99.90
67750;DHT22;54550;48.838;8.828;2022-12-07T17:32:38;1.40;99.90
67750;DHT22;54550;48.838;8.828;2022-12-07T17:35:04;1.40;99.90
67750;DHT22;54550;48.838;8.828;2022-12-07T17:37:31;1.40;99.90
67750;DHT22;54550;48.838;8.828;2022-12-07T17:39:57;1.40;99.90
67750;DHT22;54550;48.838;8.828;2022-12-07T17:42:24;1.30;99.90
67750;DHT22;54550;48.838;8.828;2022-12-07T17:45:09;1.30;99.90
67750;DHT22;54550;48.838;8.828;2022-12-07T17:47:36;1.40;99.90
67750;DHT22;54550;48.838;8.828;2022-12-07T17:50:03;1.30;99.90
67750;DHT22;54550;48.838;8.828;2022-12-07T17:52:29;1.40;99.90
67750;DHT22;54550;48.838;8.828;2022-12-07T17:55:13;1.30;99.90
67750;DHT22;54550;48.838;8.828;2022-12-07T17:57:39;1.30;99.90
67750;DHT22;54550;48.838;8.828;2022-12-07T18:00:06;1.30;99.90
67750;DHT22;54550;48.838;8.828;2022-12-07T18:02:31;1.40;99.90
67750;DHT22;54550;48.838;8.828;2022-12-07T18:04:57;1.30;99.90
67750;DHT22;54550;48.838;8.828;2022-12-07T18:07:23;1.20;99.90
67750;DHT22;54550;48.838;8.828;2022-12-07T18:09:48;1.20;99.90
67750;DHT22;54550;48.838;8.828;2022-12-07T18:12:14;1.20;99.90
67750;DHT22;54550;48.838;8.828;2022-12-07T18:14:40;1.20;99.90